sensor_id;sensor_type;location;lat;lon;timestamp;temperature;humidity
7562;DHT22;3822;48.784;9.174;2022-11-15T00:00:58;12.40;92.10
7562;DHT22;3822;48.784;9.174;2022-11-15T00:03:27;12.30;92.00
7562;DHT22;3822;48.784;9.174;2022-11-15T00:05:54;12.40;92.10
7562;DHT22;3822;48.784;9.174;2022-11-15T00:08:20;12.30;92.10
7562;DHT22;3822;48.784;9.174;2022-11-15T00:10:55;11.00;91.50
7562;DHT22;3822;48.784;9.174;2022-11-15T00:13:22;12.40;92.10
7562;DHT22;3822;48.784;9.174;2022-11-15T00:15:49;12.40;92.50
7562;DHT22;3822;48.784;9.174;2022-11-15T00:18:16;12.30;92.10
7562;DHT22;3822;48.784;9.174;2022-11-15T00:20:43;12.30;92.10
7562;DHT22;3822;48.784;9.174;2022-11-15T00:23:10;12.30;92.20
7562;DHT22;3822;48.784;9.174;2022-11-15T00:25:37;12.30;92.20
7562;DHT22;3822;48.784;9.174;2022-11-15T00:28:04;12.30;92.20
7562;DHT22;3822;48.784;9.174;2022-11-15T00:30:30;12.30;92.20
7562;DHT22;3822;48.784;9.174;2022-11-15T00:33:04;12.40;92.30
7562;DHT22;3822;48.784;9.174;2022-11-15T00:35:32;12.40;92.30
7562;DHT22;3822;48.784;9.174;2022-11-15T00:38:00;12.30;92.10
7562;DHT22;3822;48.784;9.174;2022-11-15T00:40:27;12.40;92.00
7562;DHT22;3822;48.784;9.174;2022-11-15T00:42:54;12.40;91.90
7562;DHT22;3822;48.784;9.174;2022-11-15T00:45:21;12.40;91.80
7562;DHT22;3822;48.784;9.174;2022-11-15T00:47:57;12.40;91.80
7562;DHT22;3822;48.784;9.174;2022-11-15T00:50:29;12.40;91.70
7562;DHT22;3822;48.784;9.174;2022-11-15T00:52:56;12.40;91.60
7562;DHT22;3822;48.784;9.174;2022-11-15T00:55:22;12.40;91.60
7562;DHT22;3822;48.784;9.174;2022-11-15T00:57:49;12.60;91.60
7562;DHT22;3822;48.784;9.174;2022-11-15T01:00:16;12.40;91.50
7562;DHT22;3822;48.784;9.174;2022-11-15T01:02:42;12.40;91.40
7562;DHT22;3822;48.784;9.174;2022-11-15T01:05:11;12.50;91.30
7562;DHT22;3822;48.784;9.174;2022-11-15T01:07:38;12.50;91.30
7562;DHT22;3822;48.784;9.174;2022-11-15T01:10:05;12.50;91.20
7562;DHT22;3822;48.784;9.174;2022-11-15T01:12:32;12.50;91.10
7562;DHT22;3822;48.784;9.174;2022-11-15T01:14:58;12.50;91.10
7562;DHT22;3822;48.784;9.174;2022-11-15T01:17:25;12.50;91.00
7562;DHT22;3822;48.784;9.174;2022-11-15T01:19:52;12.50;91.00
7562;DHT22;3822;48.784;9.174;2022-11-15T01:22:18;12.50;91.00
7562;DHT22;3822;48.784;9.174;2022-11-15T01:24:45;12.50;91.00
7562;DHT22;3822;48.784;9.174;2022-11-15T01:27:11;12.50;91.10
7562;DHT22;3822;48.784;9.174;2022-11-15T01:29:38;12.60;91.10
7562;DHT22;3822;48.784;9.174;2022-11-15T01:32:04;12.50;91.20
7562;DHT22;3822;48.784;9.174;2022-11-15T01:34:31;12.40;91.10
7562;DHT22;3822;48.784;9.174;2022-11-15T01:36:57;12.40;91.20
7562;DHT22;3822;48.784;9.174;2022-11-15T01:39:25;12.40;91.20
7562;DHT22;3822;48.784;9.174;2022-11-15T01:41:52;12.40;91.20
7562;DHT22;3822;48.784;9.174;2022-11-15T01:52:30;12.30;91.30
7562;DHT22;3822;48.784;9.174;2022-11-15T01:55:21;12.30;91.30
7562;DHT22;3822;48.784;9.174;2022-11-15T01:57:53;12.30;91.30
7562;DHT22;3822;48.784;9.174;2022-11-15T02:00:23;12.40;91.40
7562;DHT22;3822;48.784;9.174;2022-11-15T02:02:50;12.20;91.30
7562;DHT22;3822;48.784;9.174;2022-11-15T02:05:19;12.20;91.40
7562;DHT22;3822;48.784;9.174;2022-11-15T02:07:46;12.20;91.40
7562;DHT22;3822;48.784;9.174;2022-11-15T02:10:23;12.20;91.50
7562;DHT22;3822;48.784;9.174;2022-11-15T02:12:51;12.10;91.50
7562;DHT22;3822;48.784;9.174;2022-11-15T02:15:19;12.10;91.50
7562;DHT22;3822;48.784;9.174;2022-11-15T02:18:11;12.20;91.60
7562;DHT22;3822;48.784;9.174;2022-11-15T02:20:47;12.10;91.60
7562;DHT22;3822;48.784;9.174;2022-11-15T02:23:28;12.20;91.70
7562;DHT22;3822;48.784;9.174;2022-11-15T02:32:04;12.10;91.70
7562;DHT22;3822;48.784;9.174;2022-11-15T02:37:45;12.00;91.80
7562;DHT22;3822;48.784;9.174;2022-11-15T02:40:23;12.00;91.80
7562;DHT22;3822;48.784;9.174;2022-11-15T02:43:19;11.90;91.80
7562;DHT22;3822;48.784;9.174;2022-11-15T02:46:12;11.90;91.90
7562;DHT22;3822;48.784;9.174;2022-11-15T02:48:49;11.90;91.90
7562;DHT22;3822;48.784;9.174;2022-11-15T02:51:17;11.90;91.90
7562;DHT22;3822;48.784;9.174;2022-11-15T02:53:43;11.90;91.90
7562;DHT22;3822;48.784;9.174;2022-11-15T02:56:11;11.90;91.90
7562;DHT22;3822;48.784;9.174;2022-11-15T02:59:08;11.90;92.00
7562;DHT22;3822;48.784;9.174;2022-11-15T03:02:16;11.90;92.00
7562;DHT22;3822;48.784;9.174;2022-11-15T03:04:55;11.90;92.00
7562;DHT22;3822;48.784;9.174;2022-11-15T03:15:17;11.80;91.90
7562;DHT22;3822;48.784;9.174;2022-11-15T03:18:21;11.80;91.90
7562;DHT22;3822;48.784;9.174;2022-11-15T03:20:51;11.80;91.90
7562;DHT22;3822;48.784;9.174;2022-11-15T03:23:18;11.80;91.90
7562;DHT22;3822;48.784;9.174;2022-11-15T03:25:48;11.80;91.90
7562;DHT22;3822;48.784;9.174;2022-11-15T03:28:22;11.80;91.90
7562;DHT22;3822;48.784;9.174;2022-11-15T03:30:52;11.80;91.90
7562;DHT22;3822;48.784;9.174;2022-11-15T03:33:21;11.70;91.80
7562;DHT22;3822;48.784;9.174;2022-11-15T03:35:48;11.70;91.90
7562;DHT22;3822;48.784;9.174;2022-11-15T03:38:23;11.70;91.90
7562;DHT22;3822;48.784;9.174;2022-11-15T03:40:59;11.70;91.90
7562;DHT22;3822;48.784;9.174;2022-11-15T03:43:56;11.70;91.90
7562;DHT22;3822;48.784;9.174;2022-11-15T03:46:32;11.70;91.90
7562;DHT22;3822;48.784;9.174;2022-11-15T03:49:20;11.70;91.90
7562;DHT22;3822;48.784;9.174;2022-11-15T03:51:50;11.70;92.00
7562;DHT22;3822;48.784;9.174;2022-11-15T03:54:17;11.70;92.00
7562;DHT22;3822;48.784;9.174;2022-11-15T03:56:43;11.70;92.00
7562;DHT22;3822;48.784;9.174;2022-11-15T03:59:10;11.70;92.00
7562;DHT22;3822;48.784;9.174;2022-11-15T04:01:37;11.70;92.00
7562;DHT22;3822;48.784;9.174;2022-11-15T04:04:04;12.30;92.30
7562;DHT22;3822;48.784;9.174;2022-11-15T04:06:30;11.70;92.00
7562;DHT22;3822;48.784;9.174;2022-11-15T04:08:58;11.60;92.00
7562;DHT22;3822;48.784;9.174;2022-11-15T04:11:24;11.60;92.00
7562;DHT22;3822;48.784;9.174;2022-11-15T04:13:51;11.60;92.00
7562;DHT22;3822;48.784;9.174;2022-11-15T04:16:17;11.60;92.00
7562;DHT22;3822;48.784;9.174;2022-11-15T04:18:44;11.70;92.10
7562;DHT22;3822;48.784;9.174;2022-11-15T04:21:10;11.60;92.00
7562;DHT22;3822;48.784;9.174;2022-11-15T04:23:55;11.70;92.10
7562;DHT22;3822;48.784;9.174;2022-11-15T04:26:40;11.60;92.00
7562;DHT22;3822;48.784;9.174;2022-11-15T04:29:06;11.60;92.00
7562;DHT22;3822;48.784;9.174;2022-11-15T04:31:51;11.60;92.00
7562;DHT22;3822;48.784;9.174;2022-11-15T04:34:18;11.60;92.10
7562;DHT22;3822;48.784;9.174;2022-11-15T04:36:44;11.60;92.10
7562;DHT22;3822;48.784;9.174;2022-11-15T04:39:29;11.60;92.10
7562;DHT22;3822;48.784;9.174;2022-11-15T04:41:56;11.80;92.10
7562;DHT22;3822;48.784;9.174;2022-11-15T04:44:22;11.60;92.10
7562;DHT22;3822;48.784;9.174;2022-11-15T04:46:49;11.60;92.10
7562;DHT22;3822;48.784;9.174;2022-11-15T04:49:15;11.60;92.10
7562;DHT22;3822;48.784;9.174;2022-11-15T04:51:42;11.60;92.10
7562;DHT22;3822;48.784;9.174;2022-11-15T04:54:08;11.60;92.10
7562;DHT22;3822;48.784;9.174;2022-11-15T04:56:35;11.60;92.10
7562;DHT22;3822;48.784;9.174;2022-11-15T04:59:02;11.60;92.20
7562;DHT22;3822;48.784;9.174;2022-11-15T05:01:29;11.60;92.10
7562;DHT22;3822;48.784;9.174;2022-11-15T05:03:55;11.60;92.20
7562;DHT22;3822;48.784;9.174;2022-11-15T05:06:40;11.60;92.20
7562;DHT22;3822;48.784;9.174;2022-11-15T05:09:07;11.50;92.10
7562;DHT22;3822;48.784;9.174;2022-11-15T05:11:34;11.50;92.20
7562;DHT22;3822;48.784;9.174;2022-11-15T05:14:00;11.50;92.20
7562;DHT22;3822;48.784;9.174;2022-11-15T05:16:27;11.70;92.20
7562;DHT22;3822;48.784;9.174;2022-11-15T05:18:54;11.50;92.20
7562;DHT22;3822;48.784;9.174;2022-11-15T05:21:21;11.60;92.30
7562;DHT22;3822;48.784;9.174;2022-11-15T05:23:48;11.60;92.30
7562;DHT22;3822;48.784;9.174;2022-11-15T05:26:16;11.50;92.20
7562;DHT22;3822;48.784;9.174;2022-11-15T05:28:44;11.50;92.30
7562;DHT22;3822;48.784;9.174;2022-11-15T05:31:13;11.50;92.30
7562;DHT22;3822;48.784;9.174;2022-11-15T05:33:42;11.60;92.30
7562;DHT22;3822;48.784;9.174;2022-11-15T05:39:06;11.50;92.30
7562;DHT22;3822;48.784;9.174;2022-11-15T05:41:41;11.50;92.30
7562;DHT22;3822;48.784;9.174;2022-11-15T05:44:11;11.50;92.30
7562;DHT22;3822;48.784;9.174;2022-11-15T05:46:40;11.50;92.40
7562;DHT22;3822;48.784;9.174;2022-11-15T05:49:11;11.50;92.40
7562;DHT22;3822;48.784;9.174;2022-11-15T05:51:41;11.50;92.40
7562;DHT22;3822;48.784;9.174;2022-11-15T05:54:10;11.50;92.40
7562;DHT22;3822;48.784;9.174;2022-11-15T05:56:37;11.50;92.40
7562;DHT22;3822;48.784;9.174;2022-11-15T05:59:04;11.50;92.40
7562;DHT22;3822;48.784;9.174;2022-11-15T06:01:31;11.50;92.40
7562;DHT22;3822;48.784;9.174;2022-11-15T06:03:57;11.40;92.40
7562;DHT22;3822;48.784;9.174;2022-11-15T06:06:28;11.40;92.40
7562;DHT22;3822;48.784;9.174;2022-11-15T06:08:55;11.40;92.70
7562;DHT22;3822;48.784;9.174;2022-11-15T06:11:22;11.50;92.50
7562;DHT22;3822;48.784;9.174;2022-11-15T06:13:48;11.40;92.40
7562;DHT22;3822;48.784;9.174;2022-11-15T06:16:15;11.40;92.40
7562;DHT22;3822;48.784;9.174;2022-11-15T06:18:42;11.40;92.40
7562;DHT22;3822;48.784;9.174;2022-11-15T06:21:09;11.40;92.40
7562;DHT22;3822;48.784;9.174;2022-11-15T06:23:35;11.40;92.50
7562;DHT22;3822;48.784;9.174;2022-11-15T06:26:03;11.40;92.50
7562;DHT22;3822;48.784;9.174;2022-11-15T06:28:31;11.40;92.50
7562;DHT22;3822;48.784;9.174;2022-11-15T06:31:05;11.50;92.50
7562;DHT22;3822;48.784;9.174;2022-11-15T06:33:33;11.50;92.50
7562;DHT22;3822;48.784;9.174;2022-11-15T06:36:17;11.40;92.50
7562;DHT22;3822;48.784;9.174;2022-11-15T06:38:45;11.50;92.60
7562;DHT22;3822;48.784;9.174;2022-11-15T06:41:12;12.70;93.10
7562;DHT22;3822;48.784;9.174;2022-11-15T06:43:40;11.50;92.60
7562;DHT22;3822;48.784;9.174;2022-11-15T06:46:08;11.50;92.60
7562;DHT22;3822;48.784;9.174;2022-11-15T06:48:35;11.60;92.70
7562;DHT22;3822;48.784;9.174;2022-11-15T06:51:03;11.50;93.20
7562;DHT22;3822;48.784;9.174;2022-11-15T06:53:31;11.50;93.50
7562;DHT22;3822;48.784;9.174;2022-11-15T06:56:02;11.50;93.80
7562;DHT22;3822;48.784;9.174;2022-11-15T06:58:30;11.60;94.00
7562;DHT22;3822;48.784;9.174;2022-11-15T07:01:05;11.60;94.10
7562;DHT22;3822;48.784;9.174;2022-11-15T07:03:35;11.70;94.30
7562;DHT22;3822;48.784;9.174;2022-11-15T07:06:02;12.00;94.50
7562;DHT22;3822;48.784;9.174;2022-11-15T07:08:29;11.80;94.20
7562;DHT22;3822;48.784;9.174;2022-11-15T07:11:00;11.80;94.00
7562;DHT22;3822;48.784;9.174;2022-11-15T07:13:29;11.80;93.80
7562;DHT22;3822;48.784;9.174;2022-11-15T07:16:07;11.80;93.60
7562;DHT22;3822;48.784;9.174;2022-11-15T07:18:36;11.80;93.40
7562;DHT22;3822;48.784;9.174;2022-11-15T07:21:06;11.80;93.20
7562;DHT22;3822;48.784;9.174;2022-11-15T07:23:38;11.80;93.10
7562;DHT22;3822;48.784;9.174;2022-11-15T07:26:06;11.80;92.90
7562;DHT22;3822;48.784;9.174;2022-11-15T07:28:34;11.90;92.90
7562;DHT22;3822;48.784;9.174;2022-11-15T07:31:05;11.50;92.60
7562;DHT22;3822;48.784;9.174;2022-11-15T07:33:32;11.80;92.90
7562;DHT22;3822;48.784;9.174;2022-11-15T07:36:01;11.90;92.60
7562;DHT22;3822;48.784;9.174;2022-11-15T07:38:29;11.90;92.50
7562;DHT22;3822;48.784;9.174;2022-11-15T07:41:01;11.90;92.40
7562;DHT22;3822;48.784;9.174;2022-11-15T07:43:29;11.90;92.30
7562;DHT22;3822;48.784;9.174;2022-11-15T07:45:56;12.00;92.30
7562;DHT22;3822;48.784;9.174;2022-11-15T07:48:23;12.10;92.20
7562;DHT22;3822;48.784;9.174;2022-11-15T07:50:49;12.10;92.10
7562;DHT22;3822;48.784;9.174;2022-11-15T07:53:16;12.10;92.00
7562;DHT22;3822;48.784;9.174;2022-11-15T07:55:43;12.20;92.00
7562;DHT22;3822;48.784;9.174;2022-11-15T07:58:10;12.20;91.90
7562;DHT22;3822;48.784;9.174;2022-11-15T08:00:37;12.30;92.00
7562;DHT22;3822;48.784;9.174;2022-11-15T08:03:14;12.30;92.00
7562;DHT22;3822;48.784;9.174;2022-11-15T08:05:42;12.40;91.90
7562;DHT22;3822;48.784;9.174;2022-11-15T08:08:10;12.40;91.90
7562;DHT22;3822;48.784;9.174;2022-11-15T08:10:37;12.50;91.70
7562;DHT22;3822;48.784;9.174;2022-11-15T08:13:06;12.50;91.60
7562;DHT22;3822;48.784;9.174;2022-11-15T08:15:35;12.50;91.40
7562;DHT22;3822;48.784;9.174;2022-11-15T08:18:13;12.60;91.40
7562;DHT22;3822;48.784;9.174;2022-11-15T08:20:41;12.70;91.40
7562;DHT22;3822;48.784;9.174;2022-11-15T08:23:12;12.70;91.40
7562;DHT22;3822;48.784;9.174;2022-11-15T08:25:39;12.80;91.40
7562;DHT22;3822;48.784;9.174;2022-11-15T08:28:07;12.80;91.50
7562;DHT22;3822;48.784;9.174;2022-11-15T08:30:38;12.90;91.60
7562;DHT22;3822;48.784;9.174;2022-11-15T08:33:11;12.90;91.60
7562;DHT22;3822;48.784;9.174;2022-11-15T08:35:40;13.10;91.70
7562;DHT22;3822;48.784;9.174;2022-11-15T08:38:07;13.00;91.70
7562;DHT22;3822;48.784;9.174;2022-11-15T08:40:34;13.00;91.70
7562;DHT22;3822;48.784;9.174;2022-11-15T08:43:01;13.00;91.70
7562;DHT22;3822;48.784;9.174;2022-11-15T08:45:29;13.10;91.70
7562;DHT22;3822;48.784;9.174;2022-11-15T08:47:57;13.10;91.70
7562;DHT22;3822;48.784;9.174;2022-11-15T08:50:23;13.20;91.70
7562;DHT22;3822;48.784;9.174;2022-11-15T08:52:50;13.20;91.60
7562;DHT22;3822;48.784;9.174;2022-11-15T08:55:16;13.20;91.60
7562;DHT22;3822;48.784;9.174;2022-11-15T08:57:43;13.20;91.60
7562;DHT22;3822;48.784;9.174;2022-11-15T09:00:10;13.20;91.50
7562;DHT22;3822;48.784;9.174;2022-11-15T09:02:39;13.20;91.50
7562;DHT22;3822;48.784;9.174;2022-11-15T09:05:06;13.30;91.50
7562;DHT22;3822;48.784;9.174;2022-11-15T09:07:33;13.30;91.50
7562;DHT22;3822;48.784;9.174;2022-11-15T09:10:00;13.30;91.40
7562;DHT22;3822;48.784;9.174;2022-11-15T09:12:26;13.40;91.40
7562;DHT22;3822;48.784;9.174;2022-11-15T09:14:53;13.70;91.60
7562;DHT22;3822;48.784;9.174;2022-11-15T09:17:19;13.50;91.40
7562;DHT22;3822;48.784;9.174;2022-11-15T09:19:46;13.50;91.30
7562;DHT22;3822;48.784;9.174;2022-11-15T09:22:12;13.70;91.30
7562;DHT22;3822;48.784;9.174;2022-11-15T09:24:39;13.60;91.20
7562;DHT22;3822;48.784;9.174;2022-11-15T09:27:05;13.60;91.00
7562;DHT22;3822;48.784;9.174;2022-11-15T09:29:32;13.70;91.00
7562;DHT22;3822;48.784;9.174;2022-11-15T09:31:59;13.70;91.00
7562;DHT22;3822;48.784;9.174;2022-11-15T09:34:26;13.10;90.50
7562;DHT22;3822;48.784;9.174;2022-11-15T09:36:52;13.80;90.80
7562;DHT22;3822;48.784;9.174;2022-11-15T09:39:19;13.80;90.70
7562;DHT22;3822;48.784;9.174;2022-11-15T09:42:08;13.90;90.70
7562;DHT22;3822;48.784;9.174;2022-11-15T09:51:03;14.10;90.60
7562;DHT22;3822;48.784;9.174;2022-11-15T09:54:05;14.20;90.50
7562;DHT22;3822;48.784;9.174;2022-11-15T09:56:35;14.30;90.50
7562;DHT22;3822;48.784;9.174;2022-11-15T10:05:24;14.60;90.20
7562;DHT22;3822;48.784;9.174;2022-11-15T10:10:32;14.80;90.00
7562;DHT22;3822;48.784;9.174;2022-11-15T10:13:03;14.90;89.80
7562;DHT22;3822;48.784;9.174;2022-11-15T10:15:30;15.00;89.70
7562;DHT22;3822;48.784;9.174;2022-11-15T10:18:13;15.00;89.60
7562;DHT22;3822;48.784;9.174;2022-11-15T10:21:26;15.10;89.40
7562;DHT22;3822;48.784;9.174;2022-11-15T10:23:58;15.20;89.20
7562;DHT22;3822;48.784;9.174;2022-11-15T10:26:25;15.20;89.00
7562;DHT22;3822;48.784;9.174;2022-11-15T10:28:52;15.30;88.70
7562;DHT22;3822;48.784;9.174;2022-11-15T10:31:27;15.30;88.50
7562;DHT22;3822;48.784;9.174;2022-11-15T10:34:15;15.40;88.40
7562;DHT22;3822;48.784;9.174;2022-11-15T10:36:46;15.40;88.10
7562;DHT22;3822;48.784;9.174;2022-11-15T10:39:20;15.40;88.10
7562;DHT22;3822;48.784;9.174;2022-11-15T10:41:46;15.40;87.80
7562;DHT22;3822;48.784;9.174;2022-11-15T10:46:46;15.30;87.30
7562;DHT22;3822;48.784;9.174;2022-11-15T10:49:27;15.40;87.50
7562;DHT22;3822;48.784;9.174;2022-11-15T10:52:01;15.50;87.60
7562;DHT22;3822;48.784;9.174;2022-11-15T10:54:48;15.40;87.40
7562;DHT22;3822;48.784;9.174;2022-11-15T10:57:32;15.40;87.10
7562;DHT22;3822;48.784;9.174;2022-11-15T11:05:33;15.40;87.20
7562;DHT22;3822;48.784;9.174;2022-11-15T11:08:22;15.50;87.30
7562;DHT22;3822;48.784;9.174;2022-11-15T11:10:56;15.50;87.00
7562;DHT22;3822;48.784;9.174;2022-11-15T11:13:27;15.50;87.00
7562;DHT22;3822;48.784;9.174;2022-11-15T11:21:26;15.40;86.70
7562;DHT22;3822;48.784;9.174;2022-11-15T11:27:08;15.40;86.80
7562;DHT22;3822;48.784;9.174;2022-11-15T11:41:48;15.50;87.30
7562;DHT22;3822;48.784;9.174;2022-11-15T11:47:41;15.50;87.00
7562;DHT22;3822;48.784;9.174;2022-11-15T11:50:20;15.50;87.10
7562;DHT22;3822;48.784;9.174;2022-11-15T11:52:59;15.50;87.10
7562;DHT22;3822;48.784;9.174;2022-11-15T11:58:33;15.60;87.20
7562;DHT22;3822;48.784;9.174;2022-11-15T12:03:42;15.70;87.30
7562;DHT22;3822;48.784;9.174;2022-11-15T12:12:56;15.80;87.50
7562;DHT22;3822;48.784;9.174;2022-11-15T12:15:37;15.90;87.60
7562;DHT22;3822;48.784;9.174;2022-11-15T12:18:09;15.90;87.50
7562;DHT22;3822;48.784;9.174;2022-11-15T12:20:47;15.90;88.10
7562;DHT22;3822;48.784;9.174;2022-11-15T12:23:28;16.00;87.50
7562;DHT22;3822;48.784;9.174;2022-11-15T12:28:59;16.10;87.50
7562;DHT22;3822;48.784;9.174;2022-11-15T12:31:43;16.20;87.60
7562;DHT22;3822;48.784;9.174;2022-11-15T12:36:49;16.20;87.40
7562;DHT22;3822;48.784;9.174;2022-11-15T12:39:17;16.20;87.40
7562;DHT22;3822;48.784;9.174;2022-11-15T12:41:45;16.30;87.40
7562;DHT22;3822;48.784;9.174;2022-11-15T13:00:04;16.40;87.40
7562;DHT22;3822;48.784;9.174;2022-11-15T13:03:17;16.40;87.50
7562;DHT22;3822;48.784;9.174;2022-11-15T13:08:42;16.40;87.80
7562;DHT22;3822;48.784;9.174;2022-11-15T13:11:44;16.30;88.30
7562;DHT22;3822;48.784;9.174;2022-11-15T13:17:57;16.30;90.00
7562;DHT22;3822;48.784;9.174;2022-11-15T13:20:29;16.40;90.50
7562;DHT22;3822;48.784;9.174;2022-11-15T13:23:09;16.40;90.40
7562;DHT22;3822;48.784;9.174;2022-11-15T13:28:24;16.40;89.80
7562;DHT22;3822;48.784;9.174;2022-11-15T13:34:26;16.50;89.50
7562;DHT22;3822;48.784;9.174;2022-11-15T13:36:59;16.50;88.80
7562;DHT22;3822;48.784;9.174;2022-11-15T13:39:29;16.40;88.40
7562;DHT22;3822;48.784;9.174;2022-11-15T13:41:58;16.40;87.90
7562;DHT22;3822;48.784;9.174;2022-11-15T13:44:32;16.30;87.70
7562;DHT22;3822;48.784;9.174;2022-11-15T13:47:05;16.30;87.70
7562;DHT22;3822;48.784;9.174;2022-11-15T13:49:36;16.30;87.50
7562;DHT22;3822;48.784;9.174;2022-11-15T13:52:06;16.30;87.40
7562;DHT22;3822;48.784;9.174;2022-11-15T13:54:38;16.30;87.40
7562;DHT22;3822;48.784;9.174;2022-11-15T13:57:21;16.30;87.30
7562;DHT22;3822;48.784;9.174;2022-11-15T13:59:52;16.40;87.30
7562;DHT22;3822;48.784;9.174;2022-11-15T14:02:32;16.30;87.20
7562;DHT22;3822;48.784;9.174;2022-11-15T14:05:17;16.30;87.10
7562;DHT22;3822;48.784;9.174;2022-11-15T14:08:03;16.30;87.20
7562;DHT22;3822;48.784;9.174;2022-11-15T14:10:38;16.40;87.40
7562;DHT22;3822;48.784;9.174;2022-11-15T14:13:11;16.30;87.50
7562;DHT22;3822;48.784;9.174;2022-11-15T14:15:53;16.30;87.70
7562;DHT22;3822;48.784;9.174;2022-11-15T14:18:46;16.30;87.90
7562;DHT22;3822;48.784;9.174;2022-11-15T14:21:14;16.30;87.90
7562;DHT22;3822;48.784;9.174;2022-11-15T14:23:41;16.20;88.30
7562;DHT22;3822;48.784;9.174;2022-11-15T14:26:34;16.20;88.70
7562;DHT22;3822;48.784;9.174;2022-11-15T14:29:23;16.10;88.80
7562;DHT22;3822;48.784;9.174;2022-11-15T14:31:50;16.10;89.00
7562;DHT22;3822;48.784;9.174;2022-11-15T14:34:16;16.00;89.00
7562;DHT22;3822;48.784;9.174;2022-11-15T14:36:43;16.10;89.20
7562;DHT22;3822;48.784;9.174;2022-11-15T14:39:10;16.10;89.40
7562;DHT22;3822;48.784;9.174;2022-11-15T14:41:36;16.10;89.70
7562;DHT22;3822;48.784;9.174;2022-11-15T14:44:09;16.10;89.90
7562;DHT22;3822;48.784;9.174;2022-11-15T14:46:36;16.10;89.80
7562;DHT22;3822;48.784;9.174;2022-11-15T14:49:03;16.00;89.50
7562;DHT22;3822;48.784;9.174;2022-11-15T14:51:29;16.00;89.60
7562;DHT22;3822;48.784;9.174;2022-11-15T14:53:58;16.00;89.60
7562;DHT22;3822;48.784;9.174;2022-11-15T14:56:25;16.00;89.80
7562;DHT22;3822;48.784;9.174;2022-11-15T14:58:52;16.00;89.90
7562;DHT22;3822;48.784;9.174;2022-11-15T15:01:23;16.00;90.00
7562;DHT22;3822;48.784;9.174;2022-11-15T15:03:52;16.00;90.10
7562;DHT22;3822;48.784;9.174;2022-11-15T15:06:21;16.00;90.10
7562;DHT22;3822;48.784;9.174;2022-11-15T15:08:48;16.00;90.20
7562;DHT22;3822;48.784;9.174;2022-11-15T15:11:23;16.00;90.10
7562;DHT22;3822;48.784;9.174;2022-11-15T15:13:52;16.00;90.10
7562;DHT22;3822;48.784;9.174;2022-11-15T15:16:21;16.00;90.20
7562;DHT22;3822;48.784;9.174;2022-11-15T15:18:47;16.00;90.20
7562;DHT22;3822;48.784;9.174;2022-11-15T15:21:24;16.00;90.20
7562;DHT22;3822;48.784;9.174;2022-11-15T15:23:51;16.00;90.20
7562;DHT22;3822;48.784;9.174;2022-11-15T15:26:20;15.90;90.10
7562;DHT22;3822;48.784;9.174;2022-11-15T15:28:47;16.00;90.00
7562;DHT22;3822;48.784;9.174;2022-11-15T15:31:14;15.90;89.80
7562;DHT22;3822;48.784;9.174;2022-11-15T15:33:41;17.40;90.50
7562;DHT22;3822;48.784;9.174;2022-11-15T15:36:12;15.90;89.60
7562;DHT22;3822;48.784;9.174;2022-11-15T15:38:39;15.90;89.40
7562;DHT22;3822;48.784;9.174;2022-11-15T15:41:14;15.90;89.40
7562;DHT22;3822;48.784;9.174;2022-11-15T15:43:41;15.90;89.10
7562;DHT22;3822;48.784;9.174;2022-11-15T15:46:12;15.80;89.00
7562;DHT22;3822;48.784;9.174;2022-11-15T15:48:44;15.80;89.00
7562;DHT22;3822;48.784;9.174;2022-11-15T15:51:11;15.80;89.00
7562;DHT22;3822;48.784;9.174;2022-11-15T15:53:38;15.80;88.90
7562;DHT22;3822;48.784;9.174;2022-11-15T15:56:10;15.80;88.90
7562;DHT22;3822;48.784;9.174;2022-11-15T15:58:39;15.80;89.00
7562;DHT22;3822;48.784;9.174;2022-11-15T16:01:05;15.80;89.60
7562;DHT22;3822;48.784;9.174;2022-11-15T16:03:32;15.80;89.00
7562;DHT22;3822;48.784;9.174;2022-11-15T16:05:59;15.70;88.90
7562;DHT22;3822;48.784;9.174;2022-11-15T16:08:25;15.70;88.90
7562;DHT22;3822;48.784;9.174;2022-11-15T16:10:56;15.70;89.00
7562;DHT22;3822;48.784;9.174;2022-11-15T16:13:22;15.70;89.10
7562;DHT22;3822;48.784;9.174;2022-11-15T16:15:52;15.70;89.10
7562;DHT22;3822;48.784;9.174;2022-11-15T16:18:19;15.60;89.00
7562;DHT22;3822;48.784;9.174;2022-11-15T16:20:48;15.60;89.10
7562;DHT22;3822;48.784;9.174;2022-11-15T16:23:22;15.60;89.10
7562;DHT22;3822;48.784;9.174;2022-11-15T16:25:50;15.60;89.20
7562;DHT22;3822;48.784;9.174;2022-11-15T16:28:27;15.60;89.20
7562;DHT22;3822;48.784;9.174;2022-11-15T16:31:05;15.60;89.20
7562;DHT22;3822;48.784;9.174;2022-11-15T16:33:34;15.60;89.20
7562;DHT22;3822;48.784;9.174;2022-11-15T16:36:04;15.60;89.10
7562;DHT22;3822;48.784;9.174;2022-11-15T16:38:31;15.50;88.90
7562;DHT22;3822;48.784;9.174;2022-11-15T16:40:57;15.50;88.70
7562;DHT22;3822;48.784;9.174;2022-11-15T16:43:24;17.00;89.90
7562;DHT22;3822;48.784;9.174;2022-11-15T16:45:50;15.50;88.40
7562;DHT22;3822;48.784;9.174;2022-11-15T16:50:48;15.50;87.90
7562;DHT22;3822;48.784;9.174;2022-11-15T16:53:14;15.60;87.90
7562;DHT22;3822;48.784;9.174;2022-11-15T16:55:41;15.50;87.70
7562;DHT22;3822;48.784;9.174;2022-11-15T16:58:08;15.50;87.50
7562;DHT22;3822;48.784;9.174;2022-11-15T17:00:35;16.00;88.00
7562;DHT22;3822;48.784;9.174;2022-11-15T17:03:02;15.50;87.50
7562;DHT22;3822;48.784;9.174;2022-11-15T17:05:28;15.50;87.60
7562;DHT22;3822;48.784;9.174;2022-11-15T17:07:55;15.50;87.50
7562;DHT22;3822;48.784;9.174;2022-11-15T17:10:23;15.50;87.50
7562;DHT22;3822;48.784;9.174;2022-11-15T17:12:51;15.50;87.40
7562;DHT22;3822;48.784;9.174;2022-11-15T17:15:19;15.50;87.30
7562;DHT22;3822;48.784;9.174;2022-11-15T17:17:53;15.50;87.30
7562;DHT22;3822;48.784;9.174;2022-11-15T17:20:21;15.60;87.30
7562;DHT22;3822;48.784;9.174;2022-11-15T17:22:49;15.50;87.20
7562;DHT22;3822;48.784;9.174;2022-11-15T17:25:18;15.50;87.10
7562;DHT22;3822;48.784;9.174;2022-11-15T17:27:44;15.50;87.00
7562;DHT22;3822;48.784;9.174;2022-11-15T17:30:12;15.50;87.10
7562;DHT22;3822;48.784;9.174;2022-11-15T17:32:41;15.50;87.30
7562;DHT22;3822;48.784;9.174;2022-11-15T17:35:10;15.50;87.50
7562;DHT22;3822;48.784;9.174;2022-11-15T17:37:38;15.50;87.80
7562;DHT22;3822;48.784;9.174;2022-11-15T17:40:05;15.50;87.90
7562;DHT22;3822;48.784;9.174;2022-11-15T17:42:32;15.50;88.00
7562;DHT22;3822;48.784;9.174;2022-11-15T17:44:58;15.50;88.10
7562;DHT22;3822;48.784;9.174;2022-11-15T17:47:25;15.80;88.40
7562;DHT22;3822;48.784;9.174;2022-11-15T17:49:51;15.50;88.20
7562;DHT22;3822;48.784;9.174;2022-11-15T17:52:18;15.40;88.20
7562;DHT22;3822;48.784;9.174;2022-11-15T17:54:44;15.40;88.30
7562;DHT22;3822;48.784;9.174;2022-11-15T17:57:12;15.40;88.40
7562;DHT22;3822;48.784;9.174;2022-11-15T17:59:39;15.40;88.60
7562;DHT22;3822;48.784;9.174;2022-11-15T18:02:05;15.40;88.80
7562;DHT22;3822;48.784;9.174;2022-11-15T18:04:32;15.40;89.00
7562;DHT22;3822;48.784;9.174;2022-11-15T18:06:58;15.40;89.10
7562;DHT22;3822;48.784;9.174;2022-11-15T18:09:25;15.30;89.20
7562;DHT22;3822;48.784;9.174;2022-11-15T18:11:51;15.40;89.40
7562;DHT22;3822;48.784;9.174;2022-11-15T18:14:19;15.30;89.40
7562;DHT22;3822;48.784;9.174;2022-11-15T18:16:46;15.30;89.50
7562;DHT22;3822;48.784;9.174;2022-11-15T18:19:13;15.30;89.60
7562;DHT22;3822;48.784;9.174;2022-11-15T18:21:42;15.30;89.70
7562;DHT22;3822;48.784;9.174;2022-11-15T18:24:32;15.70;90.10
7562;DHT22;3822;48.784;9.174;2022-11-15T18:27:01;15.30;90.00
7562;DHT22;3822;48.784;9.174;2022-11-15T18:29:28;15.30;90.00